Crosswicks, New Jersey
Current Conditions -  °F | °C
As of 1:58 PM on Tuesday 21 Oct 2014 (Local Time) from KWRI Reporting Station
Broken Clouds Broken Clouds  
Wind Chill: 67°   Ceiling: 10000
Heat Index: 67°   Visibility: 10mi
Dew Point: 51°   Wind: 5mph
Humidity: 57%   Direction: 250°WSW
Pressure: 29.8"   Gusts: NA
Location:  40.15°N, 74.65°W
Report Text: KWRI 211758Z AUTO 25004KT 10SM BKN100 20/11 A2980 RMK AO2 LTG DSNT NE SLP094 60000 T01950108 10201 20081 57020
Loading
Personal Weather Stations






























Interactive Weather Map
Tropical Storm Tracking
New forecast layout! Learn more

10-Day Weather Forecast

Advertisements
Track Severe Weather on mobile